createdAt,value
2018-11-11T00:04:02.831Z,94125.20
2018-11-11T00:19:07.248Z,94126.03
2018-11-11T00:34:11.130Z,94124.03
2018-11-11T00:49:14.970Z,94122.35
2018-11-11T01:04:18.804Z,94122.83
2018-11-11T01:19:22.691Z,94120.00
2018-11-11T01:34:26.538Z,94123.27
2018-11-11T01:49:30.378Z,94136.92
2018-11-11T02:04:34.209Z,94134.52
2018-11-11T02:19:38.056Z,94140.30
2018-11-11T02:34:41.854Z,94147.74
2018-11-11T02:49:45.682Z,94146.07
2018-11-11T03:04:49.487Z,94146.08
2018-11-11T03:19:53.304Z,94142.34
2018-11-11T03:34:57.104Z,94149.78
2018-11-11T03:50:00.872Z,94157.22
2018-11-11T04:05:04.747Z,94161.31
2018-11-11T04:20:10.247Z,94167.54
2018-11-11T04:35:14.194Z,94169.98
2018-11-11T04:50:18.667Z,94186.88
2018-11-11T05:05:22.492Z,94189.37
2018-11-11T05:20:26.356Z,94204.22
2018-11-11T05:35:30.187Z,94217.09
2018-11-11T05:50:34.013Z,94215.78
2018-11-11T06:05:37.880Z,94232.88
2018-11-11T06:20:41.745Z,94240.81
2018-11-11T06:35:45.528Z,94250.94
2018-11-11T06:50:49.379Z,94272.84
2018-11-11T07:05:53.259Z,94275.09
2018-11-11T07:20:57.065Z,94277.20
2018-11-11T07:36:00.981Z,94288.84
2018-11-11T07:51:04.963Z,94286.56
2018-11-11T08:06:08.797Z,94292.72
2018-11-11T08:21:14.437Z,94303.38
2018-11-11T08:36:18.291Z,94302.45
2018-11-11T08:51:22.352Z,94305.42
2018-11-11T09:06:26.207Z,94300.23
2018-11-11T09:21:30.240Z,94298.79
2018-11-11T09:36:34.076Z,94299.69
2018-11-11T09:51:38.120Z,94298.63
2018-11-11T10:06:47.199Z,94286.75
2018-11-11T10:22:00.117Z,94286.31
2018-11-11T10:37:15.956Z,94278.88
2018-11-11T10:52:19.998Z,94256.19
2018-11-11T11:07:23.915Z,94260.83
2018-11-11T11:22:29.174Z,94256.69
2018-11-11T11:37:33.046Z,94258.50
2018-11-11T11:52:36.919Z,94246.34
2018-11-11T12:07:40.804Z,94242.15
2018-11-11T12:22:44.584Z,94234.98
2018-11-11T12:37:48.443Z,94234.31
2018-11-11T12:52:52.270Z,94250.36
2018-11-11T13:07:56.164Z,94256.80
2018-11-11T13:23:00.041Z,94253.66
2018-11-11T13:38:04.000Z,94266.91
2018-11-11T13:53:07.773Z,94270.01
2018-11-11T14:08:11.800Z,94279.89
2018-11-11T14:23:15.656Z,94285.66
2018-11-11T14:38:19.542Z,94293.66
2018-11-11T14:53:23.539Z,94293.34
2018-11-11T15:08:27.464Z,94318.00
2018-11-11T15:23:31.346Z,94323.20
2018-11-11T15:38:35.225Z,94324.55
2018-11-11T15:53:39.190Z,94340.00
2018-11-11T16:08:43.216Z,94351.27
2018-11-11T16:23:47.148Z,94364.28
2018-11-11T16:38:51.086Z,94354.78
2018-11-11T16:53:55.134Z,94371.16
2018-11-11T17:08:59.104Z,94375.44
2018-11-11T17:24:03.381Z,94380.16
2018-11-11T17:39:10.365Z,94415.13
2018-11-11T17:54:14.702Z,94428.53
2018-11-11T18:09:18.665Z,94440.59
2018-11-11T18:24:22.749Z,94451.89
2018-11-11T18:39:26.783Z,94455.56
2018-11-11T18:54:30.697Z,94468.85
2018-11-11T19:09:34.759Z,94489.78
2018-11-11T19:24:39.040Z,94506.19
2018-11-11T19:39:43.052Z,94513.75
2018-11-11T19:54:47.047Z,94512.05
2018-11-11T20:09:51.068Z,94517.14
2018-11-11T20:24:55.148Z,94527.89
2018-11-11T20:39:59.130Z,94528.70
2018-11-11T20:55:03.180Z,94534.26
2018-11-11T21:10:09.494Z,94540.11
2018-11-11T21:25:13.634Z,94558.37
2018-11-11T21:40:20.685Z,94573.68
2018-11-11T21:55:24.562Z,94590.23
2018-11-11T22:10:28.403Z,94595.23
2018-11-11T22:25:32.270Z,94591.50
2018-11-11T22:40:36.139Z,94609.30
2018-11-11T22:55:39.962Z,94597.73
2018-11-11T23:10:43.875Z,94608.88
2018-11-11T23:49:45.533Z,94599.28
